Malmo, Sweden
Current Conditions -  °F | °C
As of 12:20 PM on Sunday 21 Dec 2014 (Local Time) from EKCH Reporting Station
Broken Clouds Broken Clouds  
Wind Chill:   Ceiling: 25000
Heat Index:   Visibility: 6mi
Dew Point:   Wind: 15mph
Humidity: 81%   Direction: 260°W
Pressure: 29.97"   Gusts: NA
Location:  55.6°N, 13°E
Report Text: EKCH 211120Z 26013KT 9999 FEW030 BKN250 06/03 Q1015 NOSIG
Loading
Personal Weather Stations






























Interactive Weather Map New forecast layout! Learn more

10-Day Weather Forecast

Advertisements
Track Severe Weather on mobile